sensor_id;sensor_type;location;lat;lon;timestamp;temperature;humidity
34873;DHT22;21084;51.098;14.506;2023-05-24T00:00:34;9.80;90.00
34873;DHT22;21084;51.098;14.506;2023-05-24T00:03:02;9.80;90.10
34873;DHT22;21084;51.098;14.506;2023-05-24T00:05:33;9.80;89.00
34873;DHT22;21084;51.098;14.506;2023-05-24T00:08:03;9.80;89.50
34873;DHT22;21084;51.098;14.506;2023-05-24T00:10:32;9.80;89.00
34873;DHT22;21084;51.098;14.506;2023-05-24T00:13:01;9.70;89.10
34873;DHT22;21084;51.098;14.506;2023-05-24T00:15:29;9.70;89.20
34873;DHT22;21084;51.098;14.506;2023-05-24T00:17:58;9.70;88.90
34873;DHT22;21084;51.098;14.506;2023-05-24T00:20:26;9.70;89.40
34873;DHT22;21084;51.098;14.506;2023-05-24T00:22:54;9.70;88.30
34873;DHT22;21084;51.098;14.506;2023-05-24T00:25:23;9.70;88.30
34873;DHT22;21084;51.098;14.506;2023-05-24T00:27:51;9.60;88.60
34873;DHT22;21084;51.098;14.506;2023-05-24T00:30:20;9.60;88.20
34873;DHT22;21084;51.098;14.506;2023-05-24T00:32:49;9.50;87.70
34873;DHT22;21084;51.098;14.506;2023-05-24T00:35:17;9.60;88.20
34873;DHT22;21084;51.098;14.506;2023-05-24T00:37:45;9.60;88.40
34873;DHT22;21084;51.098;14.506;2023-05-24T00:40:14;9.50;88.10
34873;DHT22;21084;51.098;14.506;2023-05-24T00:42:42;9.50;87.30
34873;DHT22;21084;51.098;14.506;2023-05-24T00:45:10;9.50;86.90
34873;DHT22;21084;51.098;14.506;2023-05-24T00:47:40;9.40;87.20
34873;DHT22;21084;51.098;14.506;2023-05-24T00:50:09;9.40;86.90
34873;DHT22;21084;51.098;14.506;2023-05-24T00:52:39;9.30;87.20
34873;DHT22;21084;51.098;14.506;2023-05-24T00:55:07;9.30;86.20
34873;DHT22;21084;51.098;14.506;2023-05-24T00:57:36;9.40;87.10
34873;DHT22;21084;51.098;14.506;2023-05-24T01:00:05;9.30;86.90
34873;DHT22;21084;51.098;14.506;2023-05-24T01:02:34;9.20;86.70
34873;DHT22;21084;51.098;14.506;2023-05-24T01:05:05;9.30;87.00
34873;DHT22;21084;51.098;14.506;2023-05-24T01:07:35;9.20;86.80
34873;DHT22;21084;51.098;14.506;2023-05-24T01:10:08;9.20;86.40
34873;DHT22;21084;51.098;14.506;2023-05-24T01:12:45;9.20;86.20
34873;DHT22;21084;51.098;14.506;2023-05-24T01:15:21;9.10;86.30
34873;DHT22;21084;51.098;14.506;2023-05-24T01:17:52;9.10;85.60
34873;DHT22;21084;51.098;14.506;2023-05-24T01:20:23;9.00;85.10
34873;DHT22;21084;51.098;14.506;2023-05-24T01:28:25;8.90;85.50
34873;DHT22;21084;51.098;14.506;2023-05-24T01:30:54;8.80;84.70
34873;DHT22;21084;51.098;14.506;2023-05-24T01:33:22;8.80;84.70
34873;DHT22;21084;51.098;14.506;2023-05-24T01:35:51;8.80;85.10
34873;DHT22;21084;51.098;14.506;2023-05-24T01:38:19;8.80;84.50
34873;DHT22;21084;51.098;14.506;2023-05-24T01:40:48;8.80;84.60
34873;DHT22;21084;51.098;14.506;2023-05-24T01:43:19;8.80;84.60
34873;DHT22;21084;51.098;14.506;2023-05-24T01:45:53;8.70;85.30
34873;DHT22;21084;51.098;14.506;2023-05-24T01:48:26;8.70;85.20
34873;DHT22;21084;51.098;14.506;2023-05-24T01:50:57;8.70;85.50
34873;DHT22;21084;51.098;14.506;2023-05-24T01:53:28;8.80;86.20
34873;DHT22;21084;51.098;14.506;2023-05-24T01:56:00;8.80;85.50
34873;DHT22;21084;51.098;14.506;2023-05-24T01:58:28;8.80;86.00
34873;DHT22;21084;51.098;14.506;2023-05-24T02:00:58;8.70;85.60
34873;DHT22;21084;51.098;14.506;2023-05-24T02:03:26;8.70;85.90
34873;DHT22;21084;51.098;14.506;2023-05-24T02:05:55;8.70;86.10
34873;DHT22;21084;51.098;14.506;2023-05-24T02:08:23;8.70;86.10
34873;DHT22;21084;51.098;14.506;2023-05-24T02:10:51;8.60;85.90
34873;DHT22;21084;51.098;14.506;2023-05-24T02:13:19;8.60;85.30
34873;DHT22;21084;51.098;14.506;2023-05-24T02:15:48;8.60;84.80
34873;DHT22;21084;51.098;14.506;2023-05-24T02:18:19;8.60;85.10
34873;DHT22;21084;51.098;14.506;2023-05-24T02:20:48;8.50;84.70
34873;DHT22;21084;51.098;14.506;2023-05-24T02:23:16;8.50;84.30
34873;DHT22;21084;51.098;14.506;2023-05-24T02:25:44;8.50;84.60
34873;DHT22;21084;51.098;14.506;2023-05-24T02:28:13;8.50;84.30
34873;DHT22;21084;51.098;14.506;2023-05-24T02:30:41;8.40;83.90
34873;DHT22;21084;51.098;14.506;2023-05-24T02:33:11;8.40;84.60
34873;DHT22;21084;51.098;14.506;2023-05-24T02:35:40;8.40;84.30
34873;DHT22;21084;51.098;14.506;2023-05-24T02:38:08;8.40;84.20
34873;DHT22;21084;51.098;14.506;2023-05-24T02:40:37;8.40;83.70
34873;DHT22;21084;51.098;14.506;2023-05-24T02:43:06;8.40;83.80
34873;DHT22;21084;51.098;14.506;2023-05-24T02:45:35;8.40;83.80
34873;DHT22;21084;51.098;14.506;2023-05-24T02:48:03;8.40;84.10
34873;DHT22;21084;51.098;14.506;2023-05-24T02:50:32;8.30;83.70
34873;DHT22;21084;51.098;14.506;2023-05-24T02:53:01;8.40;84.70
34873;DHT22;21084;51.098;14.506;2023-05-24T02:55:29;8.30;84.30
34873;DHT22;21084;51.098;14.506;2023-05-24T02:57:58;8.30;84.40
34873;DHT22;21084;51.098;14.506;2023-05-24T03:00:27;8.30;84.30
34873;DHT22;21084;51.098;14.506;2023-05-24T03:02:55;8.30;83.70
34873;DHT22;21084;51.098;14.506;2023-05-24T03:05:28;8.20;83.80
34873;DHT22;21084;51.098;14.506;2023-05-24T03:07:56;8.20;83.50
34873;DHT22;21084;51.098;14.506;2023-05-24T03:10:26;8.20;83.40
34873;DHT22;21084;51.098;14.506;2023-05-24T03:12:54;8.10;83.60
34873;DHT22;21084;51.098;14.506;2023-05-24T03:15:23;8.10;82.90
34873;DHT22;21084;51.098;14.506;2023-05-24T03:17:51;8.10;83.10
34873;DHT22;21084;51.098;14.506;2023-05-24T03:20:19;8.10;82.70
34873;DHT22;21084;51.098;14.506;2023-05-24T03:22:49;8.10;82.80
34873;DHT22;21084;51.098;14.506;2023-05-24T03:25:17;8.10;82.70
34873;DHT22;21084;51.098;14.506;2023-05-24T03:27:47;8.00;82.50
34873;DHT22;21084;51.098;14.506;2023-05-24T03:30:15;8.00;82.70
34873;DHT22;21084;51.098;14.506;2023-05-24T03:32:43;8.00;81.80
34873;DHT22;21084;51.098;14.506;2023-05-24T03:35:11;8.00;81.70
34873;DHT22;21084;51.098;14.506;2023-05-24T03:37:40;8.00;81.40
34873;DHT22;21084;51.098;14.506;2023-05-24T03:40:08;8.00;80.90
34873;DHT22;21084;51.098;14.506;2023-05-24T03:42:37;8.00;81.60
34873;DHT22;21084;51.098;14.506;2023-05-24T03:45:07;8.00;81.40
34873;DHT22;21084;51.098;14.506;2023-05-24T03:47:35;8.00;81.60
34873;DHT22;21084;51.098;14.506;2023-05-24T03:50:04;8.00;81.90
34873;DHT22;21084;51.098;14.506;2023-05-24T03:52:32;8.10;81.40
34873;DHT22;21084;51.098;14.506;2023-05-24T03:55:00;8.20;81.50
34873;DHT22;21084;51.098;14.506;2023-05-24T03:57:29;8.20;81.50
34873;DHT22;21084;51.098;14.506;2023-05-24T03:59:57;8.20;82.40
34873;DHT22;21084;51.098;14.506;2023-05-24T04:02:27;8.20;82.00
34873;DHT22;21084;51.098;14.506;2023-05-24T04:04:55;8.10;82.40
34873;DHT22;21084;51.098;14.506;2023-05-24T04:07:24;8.10;82.30
34873;DHT22;21084;51.098;14.506;2023-05-24T04:09:52;8.10;82.50
34873;DHT22;21084;51.098;14.506;2023-05-24T04:12:20;8.10;82.50
34873;DHT22;21084;51.098;14.506;2023-05-24T04:14:50;8.10;82.70
34873;DHT22;21084;51.098;14.506;2023-05-24T04:17:18;8.10;82.80
34873;DHT22;21084;51.098;14.506;2023-05-24T04:19:52;8.10;82.60
34873;DHT22;21084;51.098;14.506;2023-05-24T04:22:20;8.10;82.90
34873;DHT22;21084;51.098;14.506;2023-05-24T04:24:51;8.10;82.50
34873;DHT22;21084;51.098;14.506;2023-05-24T04:27:19;8.20;82.90
34873;DHT22;21084;51.098;14.506;2023-05-24T04:29:48;8.20;83.10
34873;DHT22;21084;51.098;14.506;2023-05-24T04:32:16;8.10;82.20
34873;DHT22;21084;51.098;14.506;2023-05-24T04:34:45;8.10;82.40
34873;DHT22;21084;51.098;14.506;2023-05-24T04:37:15;8.10;82.60
34873;DHT22;21084;51.098;14.506;2023-05-24T04:39:43;8.10;82.90
34873;DHT22;21084;51.098;14.506;2023-05-24T04:42:12;8.20;82.80
34873;DHT22;21084;51.098;14.506;2023-05-24T04:44:40;8.20;82.20
34873;DHT22;21084;51.098;14.506;2023-05-24T04:47:08;8.30;81.60
34873;DHT22;21084;51.098;14.506;2023-05-24T04:49:37;8.20;81.70
34873;DHT22;21084;51.098;14.506;2023-05-24T04:52:06;8.40;81.50
34873;DHT22;21084;51.098;14.506;2023-05-24T04:54:35;8.50;81.10
34873;DHT22;21084;51.098;14.506;2023-05-24T04:57:04;8.60;80.40
34873;DHT22;21084;51.098;14.506;2023-05-24T04:59:32;8.70;80.30
34873;DHT22;21084;51.098;14.506;2023-05-24T05:02:00;8.80;80.20
34873;DHT22;21084;51.098;14.506;2023-05-24T05:04:29;8.90;79.30
34873;DHT22;21084;51.098;14.506;2023-05-24T05:06:57;8.90;77.80
34873;DHT22;21084;51.098;14.506;2023-05-24T05:09:25;9.00;78.90
34873;DHT22;21084;51.098;14.506;2023-05-24T05:11:55;9.00;78.50
34873;DHT22;21084;51.098;14.506;2023-05-24T05:14:24;8.90;78.40
34873;DHT22;21084;51.098;14.506;2023-05-24T05:16:52;8.90;77.80
34873;DHT22;21084;51.098;14.506;2023-05-24T05:19:20;8.90;77.60
34873;DHT22;21084;51.098;14.506;2023-05-24T05:21:48;9.00;78.80
34873;DHT22;21084;51.098;14.506;2023-05-24T05:24:17;9.20;78.20
34873;DHT22;21084;51.098;14.506;2023-05-24T05:26:45;9.30;77.80
34873;DHT22;21084;51.098;14.506;2023-05-24T05:29:15;9.20;77.20
34873;DHT22;21084;51.098;14.506;2023-05-24T05:31:43;9.00;76.20
34873;DHT22;21084;51.098;14.506;2023-05-24T05:34:12;9.20;77.60
34873;DHT22;21084;51.098;14.506;2023-05-24T05:36:40;9.30;76.40
34873;DHT22;21084;51.098;14.506;2023-05-24T05:39:08;9.30;75.70
34873;DHT22;21084;51.098;14.506;2023-05-24T05:41:37;9.30;76.90
34873;DHT22;21084;51.098;14.506;2023-05-24T05:44:06;9.30;76.50
34873;DHT22;21084;51.098;14.506;2023-05-24T05:46:35;9.30;75.80
34873;DHT22;21084;51.098;14.506;2023-05-24T05:49:03;9.30;76.20
34873;DHT22;21084;51.098;14.506;2023-05-24T05:51:32;9.60;75.60
34873;DHT22;21084;51.098;14.506;2023-05-24T05:54:00;9.20;74.60
34873;DHT22;21084;51.098;14.506;2023-05-24T05:56:28;9.00;74.70
34873;DHT22;21084;51.098;14.506;2023-05-24T05:58:56;9.10;77.00
34873;DHT22;21084;51.098;14.506;2023-05-24T06:01:25;9.20;76.10
34873;DHT22;21084;51.098;14.506;2023-05-24T06:03:54;9.40;75.40
34873;DHT22;21084;51.098;14.506;2023-05-24T06:06:23;9.20;74.20
34873;DHT22;21084;51.098;14.506;2023-05-24T06:08:51;9.20;74.90
34873;DHT22;21084;51.098;14.506;2023-05-24T06:11:19;9.10;75.30
34873;DHT22;21084;51.098;14.506;2023-05-24T06:13:48;9.30;75.50
34873;DHT22;21084;51.098;14.506;2023-05-24T06:16:16;9.40;75.00
34873;DHT22;21084;51.098;14.506;2023-05-24T06:18:44;9.70;74.60
34873;DHT22;21084;51.098;14.506;2023-05-24T06:21:29;10.00;73.10
34873;DHT22;21084;51.098;14.506;2023-05-24T06:23:58;9.90;72.20
34873;DHT22;21084;51.098;14.506;2023-05-24T06:26:26;9.70;73.10
34873;DHT22;21084;51.098;14.506;2023-05-24T06:28:54;9.70;74.40
34873;DHT22;21084;51.098;14.506;2023-05-24T06:31:22;9.70;73.20
34873;DHT22;21084;51.098;14.506;2023-05-24T06:33:50;9.40;73.80
34873;DHT22;21084;51.098;14.506;2023-05-24T06:36:31;9.70;74.30
34873;DHT22;21084;51.098;14.506;2023-05-24T06:39:01;10.30;72.40
34873;DHT22;21084;51.098;14.506;2023-05-24T06:41:31;10.40;70.10
34873;DHT22;21084;51.098;14.506;2023-05-24T06:43:59;10.70;69.20
34873;DHT22;21084;51.098;14.506;2023-05-24T06:46:27;10.70;68.60
34873;DHT22;21084;51.098;14.506;2023-05-24T06:48:56;11.30;69.30
34873;DHT22;21084;51.098;14.506;2023-05-24T06:51:24;11.20;67.00
34873;DHT22;21084;51.098;14.506;2023-05-24T06:53:54;10.80;67.20
34873;DHT22;21084;51.098;14.506;2023-05-24T06:56:22;10.80;67.30
34873;DHT22;21084;51.098;14.506;2023-05-24T06:58:51;10.30;67.40
34873;DHT22;21084;51.098;14.506;2023-05-24T07:01:19;10.50;68.50
34873;DHT22;21084;51.098;14.506;2023-05-24T07:03:48;11.20;69.80
34873;DHT22;21084;51.098;14.506;2023-05-24T07:06:16;11.90;66.70
34873;DHT22;21084;51.098;14.506;2023-05-24T07:08:44;12.00;65.00
34873;DHT22;21084;51.098;14.506;2023-05-24T07:11:14;11.80;65.30
34873;DHT22;21084;51.098;14.506;2023-05-24T07:13:42;11.80;65.50
34873;DHT22;21084;51.098;14.506;2023-05-24T07:16:11;11.70;64.70
34873;DHT22;21084;51.098;14.506;2023-05-24T07:18:39;11.40;66.40
34873;DHT22;21084;51.098;14.506;2023-05-24T07:21:08;12.10;65.40
34873;DHT22;21084;51.098;14.506;2023-05-24T07:23:36;12.40;63.80
34873;DHT22;21084;51.098;14.506;2023-05-24T07:26:04;12.50;61.70
34873;DHT22;21084;51.098;14.506;2023-05-24T07:28:34;12.10;63.40
34873;DHT22;21084;51.098;14.506;2023-05-24T07:31:03;11.90;62.50
34873;DHT22;21084;51.098;14.506;2023-05-24T07:33:34;11.50;63.70
34873;DHT22;21084;51.098;14.506;2023-05-24T07:36:03;11.40;62.60
34873;DHT22;21084;51.098;14.506;2023-05-24T07:38:33;11.00;64.00
34873;DHT22;21084;51.098;14.506;2023-05-24T07:41:02;11.30;64.20
34873;DHT22;21084;51.098;14.506;2023-05-24T07:43:30;10.90;62.70
34873;DHT22;21084;51.098;14.506;2023-05-24T07:46:00;11.00;64.30
34873;DHT22;21084;51.098;14.506;2023-05-24T07:48:28;11.00;64.00
34873;DHT22;21084;51.098;14.506;2023-05-24T07:50:56;10.90;63.50
34873;DHT22;21084;51.098;14.506;2023-05-24T07:53:25;11.20;63.20
34873;DHT22;21084;51.098;14.506;2023-05-24T07:55:53;10.70;61.70
34873;DHT22;21084;51.098;14.506;2023-05-24T07:58:22;11.40;63.60
34873;DHT22;21084;51.098;14.506;2023-05-24T08:00:50;11.60;63.20
34873;DHT22;21084;51.098;14.506;2023-05-24T08:03:20;11.60;61.70
34873;DHT22;21084;51.098;14.506;2023-05-24T08:05:50;11.70;62.20
34873;DHT22;21084;51.098;14.506;2023-05-24T08:08:19;11.90;60.50
34873;DHT22;21084;51.098;14.506;2023-05-24T08:10:47;12.40;62.80
34873;DHT22;21084;51.098;14.506;2023-05-24T08:13:15;12.60;61.50
34873;DHT22;21084;51.098;14.506;2023-05-24T08:15:44;12.30;60.20
34873;DHT22;21084;51.098;14.506;2023-05-24T08:18:12;12.20;60.10
34873;DHT22;21084;51.098;14.506;2023-05-24T08:20:42;11.90;60.70
34873;DHT22;21084;51.098;14.506;2023-05-24T08:23:10;12.10;60.70
34873;DHT22;21084;51.098;14.506;2023-05-24T08:25:38;12.50;61.40
34873;DHT22;21084;51.098;14.506;2023-05-24T08:28:07;13.00;60.80
34873;DHT22;21084;51.098;14.506;2023-05-24T08:30:37;13.80;58.80
34873;DHT22;21084;51.098;14.506;2023-05-24T08:33:05;12.90;57.00
34873;DHT22;21084;51.098;14.506;2023-05-24T08:35:33;12.80;58.00
34873;DHT22;21084;51.098;14.506;2023-05-24T08:38:04;13.00;58.40
34873;DHT22;21084;51.098;14.506;2023-05-24T08:40:32;13.10;57.40
34873;DHT22;21084;51.098;14.506;2023-05-24T08:43:00;12.50;59.10
34873;DHT22;21084;51.098;14.506;2023-05-24T08:45:29;12.60;60.00
34873;DHT22;21084;51.098;14.506;2023-05-24T08:47:58;12.30;59.80
34873;DHT22;21084;51.098;14.506;2023-05-24T08:50:26;12.20;59.90
34873;DHT22;21084;51.098;14.506;2023-05-24T08:52:55;11.80;58.90
34873;DHT22;21084;51.098;14.506;2023-05-24T08:55:26;11.90;60.20
34873;DHT22;21084;51.098;14.506;2023-05-24T08:57:59;12.20;60.00
34873;DHT22;21084;51.098;14.506;2023-05-24T09:00:27;12.30;58.90
34873;DHT22;21084;51.098;14.506;2023-05-24T09:02:55;13.00;59.40
34873;DHT22;21084;51.098;14.506;2023-05-24T09:05:24;13.50;57.40
34873;DHT22;21084;51.098;14.506;2023-05-24T09:07:52;13.50;55.50
34873;DHT22;21084;51.098;14.506;2023-05-24T09:10:22;12.80;56.00
34873;DHT22;21084;51.098;14.506;2023-05-24T09:12:53;12.40;58.10
34873;DHT22;21084;51.098;14.506;2023-05-24T09:15:22;12.20;58.10
34873;DHT22;21084;51.098;14.506;2023-05-24T09:17:50;12.40;59.00
34873;DHT22;21084;51.098;14.506;2023-05-24T09:20:18;12.20;59.20
34873;DHT22;21084;51.098;14.506;2023-05-24T09:22:49;11.90;60.40
34873;DHT22;21084;51.098;14.506;2023-05-24T09:25:18;11.80;60.10
34873;DHT22;21084;51.098;14.506;2023-05-24T09:27:51;12.10;60.60
34873;DHT22;21084;51.098;14.506;2023-05-24T09:30:20;12.20;60.00
34873;DHT22;21084;51.098;14.506;2023-05-24T09:32:57;11.80;59.30
34873;DHT22;21084;51.098;14.506;2023-05-24T09:35:26;11.80;60.80
34873;DHT22;21084;51.098;14.506;2023-05-24T09:37:55;12.10;61.60
34873;DHT22;21084;51.098;14.506;2023-05-24T09:40:26;11.60;61.70
34873;DHT22;21084;51.098;14.506;2023-05-24T09:43:02;11.90;62.00
34873;DHT22;21084;51.098;14.506;2023-05-24T09:45:31;11.70;61.80
34873;DHT22;21084;51.098;14.506;2023-05-24T09:48:02;11.80;62.40
34873;DHT22;21084;51.098;14.506;2023-05-24T09:50:30;11.50;62.20
34873;DHT22;21084;51.098;14.506;2023-05-24T09:52:58;11.60;61.90
34873;DHT22;21084;51.098;14.506;2023-05-24T09:55:27;11.70;61.50
34873;DHT22;21084;51.098;14.506;2023-05-24T09:58:00;11.90;61.80
34873;DHT22;21084;51.098;14.506;2023-05-24T10:00:33;11.90;61.20
34873;DHT22;21084;51.098;14.506;2023-05-24T10:03:03;12.30;62.00
34873;DHT22;21084;51.098;14.506;2023-05-24T10:05:33;12.00;62.50
34873;DHT22;21084;51.098;14.506;2023-05-24T10:08:02;12.50;60.60
34873;DHT22;21084;51.098;14.506;2023-05-24T10:10:31;12.50;60.60
34873;DHT22;21084;51.098;14.506;2023-05-24T10:13:00;13.00;59.10
34873;DHT22;21084;51.098;14.506;2023-05-24T10:15:28;12.70;59.20
34873;DHT22;21084;51.098;14.506;2023-05-24T10:17:58;12.50;59.40
34873;DHT22;21084;51.098;14.506;2023-05-24T10:20:27;12.50;60.60
34873;DHT22;21084;51.098;14.506;2023-05-24T10:22:58;12.40;60.60
34873;DHT22;21084;51.098;14.506;2023-05-24T10:25:27;12.30;60.80
34873;DHT22;21084;51.098;14.506;2023-05-24T10:27:57;12.40;60.20
34873;DHT22;21084;51.098;14.506;2023-05-24T10:30:27;12.60;61.30
34873;DHT22;21084;51.098;14.506;2023-05-24T10:32:59;12.50;61.00
34873;DHT22;21084;51.098;14.506;2023-05-24T10:35:28;13.00;61.80
34873;DHT22;21084;51.098;14.506;2023-05-24T10:37:56;12.80;59.70
34873;DHT22;21084;51.098;14.506;2023-05-24T10:40:25;12.50;60.90
34873;DHT22;21084;51.098;14.506;2023-05-24T10:42:53;12.20;61.00
34873;DHT22;21084;51.098;14.506;2023-05-24T10:45:29;12.00;62.40
34873;DHT22;21084;51.098;14.506;2023-05-24T10:48:01;12.20;61.60
34873;DHT22;21084;51.098;14.506;2023-05-24T10:50:32;11.90;61.80
34873;DHT22;21084;51.098;14.506;2023-05-24T10:55:52;12.50;59.30
34873;DHT22;21084;51.098;14.506;2023-05-24T10:58:22;13.50;59.60
34873;DHT22;21084;51.098;14.506;2023-05-24T11:00:53;13.40;57.70
34873;DHT22;21084;51.098;14.506;2023-05-24T11:03:23;13.80;56.80
34873;DHT22;21084;51.098;14.506;2023-05-24T11:05:52;14.30;57.10
34873;DHT22;21084;51.098;14.506;2023-05-24T11:08:24;14.40;56.70
34873;DHT22;21084;51.098;14.506;2023-05-24T11:11:03;13.60;57.40
34873;DHT22;21084;51.098;14.506;2023-05-24T11:13:53;12.70;57.00
34873;DHT22;21084;51.098;14.506;2023-05-24T11:16:32;12.40;59.00
34873;DHT22;21084;51.098;14.506;2023-05-24T11:19:04;12.10;60.10
34873;DHT22;21084;51.098;14.506;2023-05-24T11:21:38;11.90;60.80
34873;DHT22;21084;51.098;14.506;2023-05-24T11:24:06;12.20;59.20
34873;DHT22;21084;51.098;14.506;2023-05-24T11:26:35;11.60;59.50
34873;DHT22;21084;51.098;14.506;2023-05-24T11:29:04;12.00;60.20
34873;DHT22;21084;51.098;14.506;2023-05-24T11:31:33;12.20;59.20
34873;DHT22;21084;51.098;14.506;2023-05-24T11:34:11;12.20;59.10
34873;DHT22;21084;51.098;14.506;2023-05-24T11:36:39;12.80;59.10
34873;DHT22;21084;51.098;14.506;2023-05-24T11:39:08;12.40;57.90
34873;DHT22;21084;51.098;14.506;2023-05-24T11:41:36;12.30;59.20
34873;DHT22;21084;51.098;14.506;2023-05-24T11:44:06;12.40;59.80
34873;DHT22;21084;51.098;14.506;2023-05-24T11:46:34;13.10;58.40
34873;DHT22;21084;51.098;14.506;2023-05-24T11:49:04;13.70;58.70
34873;DHT22;21084;51.098;14.506;2023-05-24T11:51:35;14.00;56.40
34873;DHT22;21084;51.098;14.506;2023-05-24T11:54:03;13.50;55.70
34873;DHT22;21084;51.098;14.506;2023-05-24T11:56:31;13.70;56.20
34873;DHT22;21084;51.098;14.506;2023-05-24T11:59:16;13.60;55.90
34873;DHT22;21084;51.098;14.506;2023-05-24T12:01:45;14.20;56.40
34873;DHT22;21084;51.098;14.506;2023-05-24T12:04:13;14.10;54.30
34873;DHT22;21084;51.098;14.506;2023-05-24T12:06:43;14.50;55.00
34873;DHT22;21084;51.098;14.506;2023-05-24T12:09:12;14.90;53.10
34873;DHT22;21084;51.098;14.506;2023-05-24T12:11:40;14.60;53.40
34873;DHT22;21084;51.098;14.506;2023-05-24T12:14:12;14.40;54.60
34873;DHT22;21084;51.098;14.506;2023-05-24T12:16:40;14.70;54.40
34873;DHT22;21084;51.098;14.506;2023-05-24T12:19:11;15.10;54.10
34873;DHT22;21084;51.098;14.506;2023-05-24T12:22:00;14.40;53.00
34873;DHT22;21084;51.098;14.506;2023-05-24T12:24:28;14.20;54.40
34873;DHT22;21084;51.098;14.506;2023-05-24T12:26:58;13.50;55.70
34873;DHT22;21084;51.098;14.506;2023-05-24T12:29:31;13.80;55.80
34873;DHT22;21084;51.098;14.506;2023-05-24T12:31:59;13.50;55.60
34873;DHT22;21084;51.098;14.506;2023-05-24T12:34:27;13.10;56.20
34873;DHT22;21084;51.098;14.506;2023-05-24T12:36:56;12.90;57.20
34873;DHT22;21084;51.098;14.506;2023-05-24T12:39:25;13.10;56.40
34873;DHT22;21084;51.098;14.506;2023-05-24T12:41:57;13.40;57.80
34873;DHT22;21084;51.098;14.506;2023-05-24T12:44:28;13.80;56.80
34873;DHT22;21084;51.098;14.506;2023-05-24T12:46:57;14.90;54.30
34873;DHT22;21084;51.098;14.506;2023-05-24T12:49:25;14.90;54.20
34873;DHT22;21084;51.098;14.506;2023-05-24T12:51:54;15.50;51.10
34873;DHT22;21084;51.098;14.506;2023-05-24T12:54:23;16.10;51.20
34873;DHT22;21084;51.098;14.506;2023-05-24T12:56:53;16.30;51.60
34873;DHT22;21084;51.098;14.506;2023-05-24T12:59:24;17.10;48.60
34873;DHT22;21084;51.098;14.506;2023-05-24T13:01:53;17.00;47.40
34873;DHT22;21084;51.098;14.506;2023-05-24T13:04:21;16.40;50.30
34873;DHT22;21084;51.098;14.506;2023-05-24T13:06:51;16.90;50.00
34873;DHT22;21084;51.098;14.506;2023-05-24T13:09:20;15.90;50.00
34873;DHT22;21084;51.098;14.506;2023-05-24T13:11:49;15.70;51.70
34873;DHT22;21084;51.098;14.506;2023-05-24T13:14:19;15.40;51.30
34873;DHT22;21084;51.098;14.506;2023-05-24T13:16:48;16.80;51.70
34873;DHT22;21084;51.098;14.506;2023-05-24T13:19:17;16.30;49.50
34873;DHT22;21084;51.098;14.506;2023-05-24T13:21:45;16.90;50.90
34873;DHT22;21084;51.098;14.506;2023-05-24T13:24:14;18.70;49.20
34873;DHT22;21084;51.098;14.506;2023-05-24T13:26:43;19.50;46.30
34873;DHT22;21084;51.098;14.506;2023-05-24T13:29:12;18.30;43.70
34873;DHT22;21084;51.098;14.506;2023-05-24T13:31:44;17.10;46.50
34873;DHT22;21084;51.098;14.506;2023-05-24T13:34:13;17.80;46.90
34873;DHT22;21084;51.098;14.506;2023-05-24T13:36:41;18.70;47.00
34873;DHT22;21084;51.098;14.506;2023-05-24T13:39:09;19.10;45.90
34873;DHT22;21084;51.098;14.506;2023-05-24T13:41:42;18.50;43.90
34873;DHT22;21084;51.098;14.506;2023-05-24T13:44:11;19.10;45.60
34873;DHT22;21084;51.098;14.506;2023-05-24T13:46:39;19.10;44.70
34873;DHT22;21084;51.098;14.506;2023-05-24T13:49:09;20.50;44.20
34873;DHT22;21084;51.098;14.506;2023-05-24T13:51:38;20.30;42.20
34873;DHT22;21084;51.098;14.506;2023-05-24T13:54:06;20.10;43.60
34873;DHT22;21084;51.098;14.506;2023-05-24T13:56:35;19.00;45.50
34873;DHT22;21084;51.098;14.506;2023-05-24T13:59:04;20.80;44.30
34873;DHT22;21084;51.098;14.506;2023-05-24T14:01:33;21.70;41.90
34873;DHT22;21084;51.098;14.506;2023-05-24T14:04:03;18.80;41.60
34873;DHT22;21084;51.098;14.506;2023-05-24T14:06:33;19.30;45.50
34873;DHT22;21084;51.098;14.506;2023-05-24T14:09:03;19.20;45.50
34873;DHT22;21084;51.098;14.506;2023-05-24T14:11:33;20.10;44.60
34873;DHT22;21084;51.098;14.506;2023-05-24T14:14:02;18.90;45.00
34873;DHT22;21084;51.098;14.506;2023-05-24T14:16:33;18.10;45.10
34873;DHT22;21084;51.098;14.506;2023-05-24T14:19:02;19.30;44.20
34873;DHT22;21084;51.098;14.506;2023-05-24T14:21:30;18.30;46.60
34873;DHT22;21084;51.098;14.506;2023-05-24T14:24:00;18.80;45.50
34873;DHT22;21084;51.098;14.506;2023-05-24T14:26:30;20.00;44.60
34873;DHT22;21084;51.098;14.506;2023-05-24T14:28:58;21.10;43.40
34873;DHT22;21084;51.098;14.506;2023-05-24T14:31:27;22.20;42.30
34873;DHT22;21084;51.098;14.506;2023-05-24T14:33:55;22.50;38.80
34873;DHT22;21084;51.098;14.506;2023-05-24T14:36:23;20.80;41.90
34873;DHT22;21084;51.098;14.506;2023-05-24T14:38:52;21.30;40.40
34873;DHT22;21084;51.098;14.506;2023-05-24T14:41:21;21.30;40.20
34873;DHT22;21084;51.098;14.506;2023-05-24T14:43:49;22.50;40.60
34873;DHT22;21084;51.098;14.506;2023-05-24T14:46:18;22.90;37.80
34873;DHT22;21084;51.098;14.506;2023-05-24T14:48:46;22.70;38.90
34873;DHT22;21084;51.098;14.506;2023-05-24T14:51:14;20.60;38.90
34873;DHT22;21084;51.098;14.506;2023-05-24T14:53:42;19.10;43.90
34873;DHT22;21084;51.098;14.506;2023-05-24T14:56:11;19.70;43.70
34873;DHT22;21084;51.098;14.506;2023-05-24T14:58:41;21.10;41.80
34873;DHT22;21084;51.098;14.506;2023-05-24T15:01:09;21.80;40.70
34873;DHT22;21084;51.098;14.506;2023-05-24T15:03:38;22.70;38.80
34873;DHT22;21084;51.098;14.506;2023-05-24T15:06:06;21.60;40.20
34873;DHT22;21084;51.098;14.506;2023-05-24T15:08:35;21.60;40.90
34873;DHT22;21084;51.098;14.506;2023-05-24T15:11:03;22.00;39.60
34873;DHT22;21084;51.098;14.506;2023-05-24T15:13:32;21.50;39.20
34873;DHT22;21084;51.098;14.506;2023-05-24T15:16:02;22.00;40.30
34873;DHT22;21084;51.098;14.506;2023-05-24T15:18:30;22.20;40.20
34873;DHT22;21084;51.098;14.506;2023-05-24T15:20:58;23.30;39.80
34873;DHT22;21084;51.098;14.506;2023-05-24T15:23:27;22.80;36.80
34873;DHT22;21084;51.098;14.506;2023-05-24T15:25:55;21.20;40.30
34873;DHT22;21084;51.098;14.506;2023-05-24T15:28:23;20.40;40.70
34873;DHT22;21084;51.098;14.506;2023-05-24T15:30:53;20.50;41.30
34873;DHT22;21084;51.098;14.506;2023-05-24T15:33:24;20.10;41.50
34873;DHT22;21084;51.098;14.506;2023-05-24T15:35:52;19.60;43.00
34873;DHT22;21084;51.098;14.506;2023-05-24T15:38:21;19.40;43.70
34873;DHT22;21084;51.098;14.506;2023-05-24T15:40:49;19.20;44.40
34873;DHT22;21084;51.098;14.506;2023-05-24T15:43:18;19.00;44.90